Time;durP1;ratioP1;P1;durP2;ratioP2;P2;SDS_P1;SDS_P2;PMS_P1;PMS_P2;Temp;Humidity;BMP_temperature;BMP_pressure;BME280_temperature;BME280_humidity;BME280_pressure;Samples;Min_cycle;Max_cycle;Signal;HPM_P1;HPM_P2
2023/11/25 00:04:36;;;;;;;;;17.50;17.50;;;;;24.74;30.73;99028.70;245703;1183;72241;-61
2023/11/25 00:09:39;;;;;;;;;18.50;17.75;;;;;24.73;30.67;99038.11;245629;1179;72564;-63
2023/11/25 00:14:43;;;;;;;;;18.50;18.50;;;;;24.72;30.72;99047.45;245682;1182;74118;-62
2023/11/25 00:19:46;;;;;;;;;17.00;17.00;;;;;24.71;30.89;99046.70;245640;1177;72824;-61
2023/11/25 00:24:50;;;;;;;;;20.00;18.50;;;;;24.73;30.77;99060.91;245668;1183;57564;-62
2023/11/25 00:29:53;;;;;;;;;16.75;16.25;;;;;24.73;30.81;99076.38;245604;1182;74239;-62
2023/11/25 00:34:57;;;;;;;;;20.00;18.50;;;;;24.73;30.78;99086.49;245663;1182;57503;-63
2023/11/25 00:40:00;;;;;;;;;16.00;15.50;;;;;24.73;30.75;99081.30;245604;1178;73048;-63
2023/11/25 00:45:04;;;;;;;;;18.00;16.33;;;;;24.72;30.64;99075.94;245676;1183;72859;-63
2023/11/25 00:50:11;;;;;;;;;16.25;15.50;;;;;24.71;30.83;99078.84;245618;1190;73883;-62
2023/11/25 00:55:14;;;;;;;;;15.75;15.75;;;;;24.72;30.66;99088.79;245671;1181;73450;-62
2023/11/25 01:00:22;;;;;;;;;17.00;17.00;;;;;24.71;30.62;99089.67;245639;1183;74696;-63
2023/11/25 01:05:26;;;;;;;;;18.50;18.50;;;;;24.71;30.71;99086.77;245627;1183;73447;-63
2023/11/25 01:10:29;;;;;;;;;16.00;16.00;;;;;24.71;30.89;99083.76;245622;1182;57543;-61
2023/11/25 01:15:33;;;;;;;;;16.75;16.25;;;;;24.71;30.76;99087.64;245623;1182;73525;-62
2023/11/25 01:20:37;;;;;;;;;18.75;17.25;;;;;24.71;30.69;99090.38;245638;1182;74308;-61
2023/11/25 01:25:40;;;;;;;;;17.50;16.75;;;;;24.70;30.79;99093.49;245631;1183;72745;-62
2023/11/25 01:30:44;;;;;;;;;19.25;17.50;;;;;24.70;30.88;99094.21;245719;1190;73626;-62
2023/11/25 01:35:47;;;;;;;;;19.25;19.00;;;;;24.70;30.65;99100.61;245721;1177;73688;-59
2023/11/25 01:40:52;;;;;;;;;17.75;17.00;;;;;24.69;30.86;99102.53;245725;1190;72925;-62
2023/11/25 01:46:01;;;;;;;;;16.50;16.50;;;;;24.68;30.76;99106.23;245721;1183;73134;-62
2023/11/25 01:51:07;;;;;;;;;18.50;17.50;;;;;24.68;30.81;99098.75;245652;1177;73512;-62
2023/11/25 01:56:14;;;;;;;;;18.25;16.00;;;;;24.68;30.74;99092.73;245726;1177;73842;-61
2023/11/25 02:01:19;;;;;;;;;19.50;19.50;;;;;24.67;30.75;99095.78;245612;1182;73959;-60
2023/11/25 02:06:23;;;;;;;;;18.33;18.00;;;;;24.67;30.71;99098.41;245639;1183;74419;-62
2023/11/25 02:11:30;;;;;;;;;14.67;14.67;;;;;24.66;30.93;99103.55;245682;1182;73892;-59
2023/11/25 02:16:36;;;;;;;;;22.50;22.50;;;;;24.66;30.81;99097.70;245686;1177;72831;-64
2023/11/25 02:21:42;;;;;;;;;17.75;16.50;;;;;24.66;30.76;99092.95;245716;1182;73673;-62
2023/11/25 02:26:46;;;;;;;;;17.50;17.50;;;;;24.66;30.89;99092.57;245676;1180;73690;-59
2023/11/25 02:31:51;;;;;;;;;18.25;18.00;;;;;24.65;30.94;99083.60;245661;1190;74044;-60
2023/11/25 02:36:57;;;;;;;;;14.75;14.75;;;;;24.65;30.95;99078.19;245632;1184;73791;-61
2023/11/25 02:42:06;;;;;;;;;17.67;15.00;;;;;24.64;31.01;99083.39;245689;1182;73690;-61
2023/11/25 02:47:14;;;;;;;;;20.00;18.50;;;;;24.64;30.98;99089.52;245682;1177;73678;-61
2023/11/25 02:52:18;;;;;;;;;16.33;16.33;;;;;24.64;31.06;99075.94;245633;1183;73449;-62
2023/11/25 02:57:35;;;;;;;;;15.75;15.50;;;;;24.64;30.93;99071.91;245681;1182;73888;-62
2023/11/25 03:02:39;;;;;;;;;16.75;16.25;;;;;24.64;30.93;99073.33;245694;1182;73572;-62
2023/11/25 03:07:44;;;;;;;;;19.25;18.25;;;;;24.63;31.03;99066.17;242476;1182;73568;-62
2023/11/25 03:12:51;;;;;;;;;18.00;17.00;;;;;24.43;31.44;99064.25;240905;1182;73184;-63
2023/11/25 03:17:57;;;;;;;;;17.33;16.00;;;;;24.25;31.76;99073.79;240814;1184;73473;-62
2023/11/25 03:23:04;;;;;;;;;13.00;12.75;;;;;24.15;31.67;99065.73;240907;1179;73160;-62
2023/11/25 03:28:08;;;;;;;;;14.67;14.67;;;;;24.08;31.97;99059.72;240824;1183;73801;-62
2023/11/25 03:33:15;;;;;;;;;17.25;17.25;;;;;24.09;31.94;99057.15;245705;1183;74113;-60
2023/11/25 03:38:19;;;;;;;;;20.00;16.00;;;;;24.29;31.93;99057.83;245728;1182;73852;-62
2023/11/25 03:43:26;;;;;;;;;14.50;14.50;;;;;24.40;31.49;99050.38;245636;1177;74561;-62
2023/11/25 03:48:32;;;;;;;;;14.50;14.50;;;;;24.47;31.36;99018.19;245684;1182;73243;-62
2023/11/25 03:53:36;;;;;;;;;13.25;13.25;;;;;24.51;31.24;99006.98;245721;1183;72942;-61
2023/11/25 03:58:43;;;;;;;;;17.75;16.25;;;;;24.53;31.49;99002.49;245693;1183;73682;-62
2023/11/25 04:03:57;;;;;;;;;15.00;14.00;;;;;24.54;31.25;99006.98;245670;1178;73103;-63
2023/11/25 04:09:04;;;;;;;;;15.00;15.00;;;;;24.55;31.19;99011.78;245637;1181;73527;-60
2023/11/25 04:14:08;;;;;;;;;18.50;17.00;;;;;24.56;31.23;99016.52;245598;1184;72717;-64
2023/11/25 04:19:12;;;;;;;;;14.00;14.00;;;;;24.56;31.21;99014.99;245571;1183;73420;-61
2023/11/25 04:24:17;;;;;;;;;16.75;15.00;;;;;24.56;31.22;99007.29;245663;1181;73482;-61
2023/11/25 04:29:21;;;;;;;;;14.50;14.50;;;;;24.56;31.20;98995.86;245666;1182;73395;-61
2023/11/25 04:34:33;;;;;;;;;15.50;15.50;;;;;24.56;31.36;98996.30;245695;1177;72761;-62
2023/11/25 04:39:41;;;;;;;;;15.75;15.75;;;;;24.56;31.46;98999.59;245636;1183;73563;-62
2023/11/25 04:44:45;;;;;;;;;18.50;17.50;;;;;24.55;31.31;99007.90;245656;1182;74698;-62
2023/11/25 04:49:49;;;;;;;;;17.00;16.75;;;;;24.56;31.40;99009.65;245666;1177;72686;-62
2023/11/25 04:54:57;;;;;;;;;17.00;17.00;;;;;24.55;31.21;98994.77;245662;1182;73658;-62
2023/11/25 05:00:01;;;;;;;;;16.00;15.50;;;;;24.55;31.39;98996.30;245638;1183;73764;-63
2023/11/25 05:05:07;;;;;;;;;15.00;15.00;;;;;24.54;31.35;98999.87;245638;1177;72783;-61
2023/11/25 05:10:11;;;;;;;;;15.25;15.25;;;;;24.54;31.48;99003.14;243278;1184;73498;-62
2023/11/25 05:15:16;;;;;;;;;17.25;15.75;;;;;24.38;31.65;98996.75;240719;1177;73712;-62
2023/11/25 05:20:20;;;;;;;;;17.25;16.75;;;;;24.24;31.98;99001.71;245641;1177;73934;-60
2023/11/25 05:25:24;;;;;;;;;15.50;15.25;;;;;24.33;31.72;98997.23;245665;1181;73458;-63
2023/11/25 05:30:27;;;;;;;;;15.00;15.00;;;;;24.41;31.60;99000.48;245586;1177;73811;-61
2023/11/25 05:35:35;;;;;;;;;16.25;16.25;;;;;24.44;31.61;99009.49;245643;1182;72884;-60
2023/11/25 05:40:41;;;;;;;;;15.50;15.50;;;;;24.47;31.61;99008.88;245629;1177;74239;-67
2023/11/25 05:45:46;;;;;;;;;15.00;14.75;;;;;24.48;31.70;99007.41;245621;1177;73149;-62
2023/11/25 05:50:52;;;;;;;;;16.25;14.75;;;;;24.49;31.49;99005.88;245627;1177;73241;-61
2023/11/25 05:55:55;;;;;;;;;14.25;14.25;;;;;24.48;31.55;99007.89;245636;1183;73366;-62
2023/11/25 06:00:59;;;;;;;;;14.75;14.75;;;;;24.49;31.54;99005.45;245582;1190;73011;-63
2023/11/25 06:06:07;;;;;;;;;13.25;13.25;;;;;24.49;31.38;99015.67;245672;1184;74411;-60
2023/11/25 06:11:21;;;;;;;;;17.25;17.25;;;;;24.49;31.50;99020.86;245704;1182;74359;-61
2023/11/25 06:16:29;;;;;;;;;19.00;19.00;;;;;24.50;31.58;99037.76;245709;1182;73534;-62
2023/11/25 06:21:38;;;;;;;;;15.50;15.50;;;;;24.50;31.51;99044.30;245691;1183;73121;-63
2023/11/25 06:26:49;;;;;;;;;17.00;15.75;;;;;24.50;31.51;99057.76;245689;1182;73434;-64
2023/11/25 06:31:54;;;;;;;;;16.75;14.50;;;;;24.49;31.57;99071.86;245717;1184;73310;-66
2023/11/25 06:36:58;;;;;;;;;15.75;15.75;;;;;24.49;31.47;99063.66;245708;1183;73721;-62
2023/11/25 06:42:07;;;;;;;;;18.25;16.25;;;;;24.49;31.44;99058.25;245680;1183;73988;-63
2023/11/25 06:47:12;;;;;;;;;16.00;15.25;;;;;24.48;31.51;99042.23;245687;1177;73862;-61
2023/11/25 06:52:17;;;;;;;;;15.75;14.50;;;;;24.48;31.54;99028.90;245645;1183;73570;-62
2023/11/25 06:57:20;;;;;;;;;17.00;17.00;;;;;24.48;31.50;99030.21;245618;1182;74422;-62
2023/11/25 07:02:26;;;;;;;;;13.00;13.00;;;;;24.48;31.53;99017.58;245686;1177;72603;-60
2023/11/25 07:07:30;;;;;;;;;17.25;15.75;;;;;24.48;31.58;98989.54;245669;1177;74305;-62
2023/11/25 07:12:33;;;;;;;;;17.50;17.50;;;;;24.48;31.54;98997.41;245666;1182;57459;-61
2023/11/25 07:17:36;;;;;;;;;15.75;15.00;;;;;24.48;31.52;99002.55;245683;1183;73355;-61
2023/11/25 07:22:40;;;;;;;;;18.33;18.33;;;;;24.47;31.58;99013.09;245664;1177;74547;-63
2023/11/25 07:27:47;;;;;;;;;18.25;16.50;;;;;24.46;31.55;99017.91;245658;1184;74311;-62
2023/11/25 07:32:50;;;;;;;;;16.50;16.50;;;;;24.46;31.57;99012.50;245629;1182;74171;-62
2023/11/25 07:37:53;;;;;;;;;14.25;14.25;;;;;24.47;31.54;99003.64;245717;1182;72070;-61
2023/11/25 07:42:56;;;;;;;;;14.00;14.00;;;;;24.46;31.48;99008.29;245703;1180;57413;-60
2023/11/25 07:47:59;;;;;;;;;14.00;14.00;;;;;24.46;31.53;99010.08;245702;1177;57536;-62
2023/11/25 07:53:02;;;;;;;;;13.00;13.00;;;;;24.45;31.58;99004.20;245703;1182;57470;-61
2023/11/25 07:58:05;;;;;;;;;15.50;14.75;;;;;24.46;31.73;99006.16;245701;1177;57505;-60
2023/11/25 08:03:09;;;;;;;;;15.25;15.00;;;;;24.45;31.53;99006.77;245667;1177;57998;-62
2023/11/25 08:08:12;;;;;;;;;14.00;14.00;;;;;24.44;31.62;99012.23;245684;1182;74095;-62
2023/11/25 08:13:18;;;;;;;;;17.00;15.25;;;;;24.45;31.52;99023.44;245686;1190;57484;-62
2023/11/25 08:18:22;;;;;;;;;16.00;15.25;;;;;24.44;31.58;99027.91;245689;1182;73686;-60
2023/11/25 08:23:25;;;;;;;;;18.25;18.25;;;;;24.45;31.61;99035.56;245592;1183;74209;-62
2023/11/25 08:28:28;;;;;;;;;17.00;15.00;;;;;24.43;31.46;99032.23;245701;1182;57930;-62
2023/11/25 08:33:31;;;;;;;;;15.00;15.00;;;;;24.42;31.48;99031.30;245652;1177;57600;-62
2023/11/25 08:38:34;;;;;;;;;16.33;15.67;;;;;24.42;31.56;99032.71;245637;1182;57468;-62
2023/11/25 08:43:43;;;;;;;;;16.00;15.00;;;;;24.42;31.59;99025.78;245658;1182;74172;-61
2023/11/25 08:48:46;;;;;;;;;15.75;15.25;;;;;24.42;31.55;99020.85;245660;1177;73138;-61
2023/11/25 08:53:50;;;;;;;;;18.50;17.00;;;;;24.42;31.45;99023.04;245642;1177;57523;-62
2023/11/25 08:58:55;;;;;;;;;16.25;15.00;;;;;24.41;31.46;99025.02;245683;1177;73117;-62
2023/11/25 09:04:10;;;;;;;;;14.75;14.50;;;;;24.40;31.52;99022.56;245583;1184;72618;-62
2023/11/25 09:09:17;;;;;;;;;14.67;14.00;;;;;24.41;31.62;99009.01;245654;1183;73188;-62
2023/11/25 09:14:20;;;;;;;;;20.00;19.50;;;;;24.40;31.60;99003.71;245564;1183;72952;-62
2023/11/25 09:19:23;;;;;;;;;14.50;14.50;;;;;24.40;31.57;98997.69;245598;1182;74443;-61
2023/11/25 09:24:26;;;;;;;;;16.50;16.00;;;;;24.38;31.59;98993.93;245668;1183;73160;-61
2023/11/25 09:29:29;;;;;;;;;19.67;17.33;;;;;24.38;31.50;98991.42;245622;1182;57555;-62
2023/11/25 09:34:33;;;;;;;;;15.50;15.25;;;;;24.37;31.43;98984.58;245618;1184;57624;-62
2023/11/25 09:39:37;;;;;;;;;19.75;19.00;;;;;24.36;31.49;98975.83;245603;1184;72760;-62
2023/11/25 09:44:41;;;;;;;;;16.25;15.00;;;;;24.35;31.44;98973.25;245711;1182;74192;-62
2023/11/25 09:49:44;;;;;;;;;17.00;17.00;;;;;24.34;31.35;98972.48;245710;1184;73465;-63
2023/11/25 09:54:47;;;;;;;;;17.75;17.75;;;;;24.35;31.45;98968.17;245702;1182;72185;-59
2023/11/25 09:59:50;;;;;;;;;17.50;17.25;;;;;24.36;31.33;98956.75;245627;1180;57421;-61
2023/11/25 10:04:55;;;;;;;;;18.25;16.75;;;;;24.34;31.24;98951.51;245688;1177;57537;-61
2023/11/25 10:09:58;;;;;;;;;14.00;14.00;;;;;24.34;31.37;98942.11;245667;1182;73308;-60
2023/11/25 10:15:02;;;;;;;;;17.67;17.67;;;;;24.34;31.39;98936.09;245728;1182;57532;-62
2023/11/25 10:20:09;;;;;;;;;15.75;15.75;;;;;24.34;31.41;98933.64;245705;1182;72944;-60
2023/11/25 10:25:13;;;;;;;;;17.00;16.75;;;;;24.33;31.33;98919.64;245628;1183;73099;-60
2023/11/25 10:30:16;;;;;;;;;20.00;17.25;;;;;24.33;31.34;98904.65;245697;1183;73488;-62
2023/11/25 10:35:21;;;;;;;;;19.00;18.33;;;;;24.31;31.27;98899.58;245662;1177;57584;-60
2023/11/25 10:40:24;;;;;;;;;16.00;15.25;;;;;24.30;31.35;98894.13;245688;1182;73400;-62
2023/11/25 10:45:28;;;;;;;;;18.75;18.75;;;;;24.30;31.10;98894.80;245698;1177;72628;-62
2023/11/25 10:50:31;;;;;;;;;20.33;17.00;;;;;24.29;31.22;98888.34;245685;1187;73532;-61
2023/11/25 10:55:35;;;;;;;;;17.75;17.00;;;;;24.28;31.09;98880.63;245643;1177;72813;-61
2023/11/25 11:00:39;;;;;;;;;22.00;19.00;;;;;24.29;31.10;98882.70;245612;1182;73509;-62
2023/11/25 11:05:47;;;;;;;;;22.25;20.00;;;;;24.29;31.07;98874.02;245699;1184;73471;-61
2023/11/25 11:11:15;;;;;;;;;18.50;18.50;;;;;24.29;31.16;98865.82;245678;1177;72673;-63
2023/11/25 11:16:33;;;;;;;;;17.50;17.50;;;;;24.28;31.01;98862.88;245675;1183;73934;-62
2023/11/25 11:21:37;;;;;;;;;19.25;19.25;;;;;24.27;31.14;98851.83;245624;1177;73634;-60
2023/11/25 11:26:43;;;;;;;;;14.00;14.00;;;;;24.27;31.03;98846.32;244862;1177;73021;-62
2023/11/25 11:31:47;;;;;;;;;17.67;16.67;;;;;24.18;31.15;98846.36;240267;1177;73849;-62
2023/11/25 11:36:51;;;;;;;;;24.75;19.75;;;;;23.94;31.40;98845.35;240289;1177;73430;-62
2023/11/25 11:41:54;;;;;;;;;20.25;18.25;;;;;23.85;31.59;98850.39;245662;1177;73653;-61
2023/11/25 11:46:57;;;;;;;;;18.50;18.50;;;;;24.01;31.47;98854.85;245668;1181;57528;-62
2023/11/25 11:52:02;;;;;;;;;18.50;18.50;;;;;24.11;31.25;98856.04;245632;1182;57501;-61
2023/11/25 11:57:09;;;;;;;;;20.00;20.00;;;;;24.14;31.04;98856.35;245662;1181;72750;-62
2023/11/25 12:02:12;;;;;;;;;20.75;18.25;;;;;24.17;31.00;98851.42;245649;1183;72862;-62
2023/11/25 12:07:15;;;;;;;;;19.25;17.00;;;;;24.20;30.97;98848.02;245652;1190;74077;-61
2023/11/25 12:12:19;;;;;;;;;19.00;19.00;;;;;24.21;30.94;98850.77;245651;1183;74159;-61
2023/11/25 12:17:22;;;;;;;;;16.33;16.33;;;;;24.22;31.03;98846.84;245669;1182;73435;-60
2023/11/25 12:22:25;;;;;;;;;16.25;16.25;;;;;24.23;30.88;98846.05;245630;1180;73612;-62
2023/11/25 12:27:30;;;;;;;;;18.75;18.50;;;;;24.23;30.95;98851.25;245674;1177;57456;-60
2023/11/25 12:32:33;;;;;;;;;20.00;20.00;;;;;24.22;30.98;98847.10;245663;1177;72996;-61
2023/11/25 12:37:36;;;;;;;;;18.33;18.33;;;;;24.21;30.95;98841.20;245707;1177;74001;-59
2023/11/25 12:42:39;;;;;;;;;18.50;17.25;;;;;24.20;31.00;98827.60;245668;1181;57580;-61
2023/11/25 12:47:48;;;;;;;;;15.75;14.75;;;;;24.22;30.94;98813.56;245674;1181;72861;-62
2023/11/25 12:53:14;;;;;;;;;16.75;16.75;;;;;24.22;30.84;98806.95;245642;1183;73853;-58
2023/11/25 12:58:18;;;;;;;;;17.00;16.00;;;;;24.23;31.05;98810.77;245642;1183;73346;-61
2023/11/25 13:03:30;;;;;;;;;16.25;15.00;;;;;24.24;30.88;98818.53;245584;1183;73259;-61
2023/11/25 13:08:37;;;;;;;;;17.75;16.25;;;;;24.22;30.96;98810.93;245607;1182;74080;-60
2023/11/25 13:13:40;;;;;;;;;16.33;16.33;;;;;24.21;31.03;98809.46;245613;1177;73104;-60
2023/11/25 13:18:47;;;;;;;;;19.00;19.00;;;;;24.21;30.99;98812.25;245617;1179;57509;-61
2023/11/25 13:23:52;;;;;;;;;18.50;18.25;;;;;24.20;31.05;98809.96;245659;1181;72899;-61
2023/11/25 13:28:55;;;;;;;;;16.75;16.50;;;;;24.21;31.07;98809.90;245680;1182;74119;-61
2023/11/25 13:33:58;;;;;;;;;15.25;15.25;;;;;24.19;31.03;98814.83;245647;1178;57492;-60
2023/11/25 13:39:04;;;;;;;;;18.00;18.00;;;;;24.19;30.89;98816.14;245648;1187;73286;-61
2023/11/25 13:44:07;;;;;;;;;17.25;15.50;;;;;24.19;30.87;98821.70;245625;1183;71894;-61
2023/11/25 13:49:10;;;;;;;;;16.00;14.00;;;;;24.18;31.01;98811.23;245667;1177;57579;-60
2023/11/25 13:54:15;;;;;;;;;18.50;17.75;;;;;24.17;30.77;98806.26;245682;1177;73176;-61
2023/11/25 13:59:18;;;;;;;;;21.50;19.50;;;;;24.17;30.89;98819.48;245633;1180;73300;-59
2023/11/25 14:04:23;;;;;;;;;14.33;13.33;;;;;24.17;30.99;98820.17;245624;1177;57452;-61
2023/11/25 14:09:27;;;;;;;;;15.50;14.50;;;;;24.16;30.89;98824.00;245604;1177;73334;-60
2023/11/25 14:14:30;;;;;;;;;17.25;16.00;;;;;24.15;30.66;98823.25;245613;1183;72661;-60
2023/11/25 14:19:34;;;;;;;;;16.75;16.75;;;;;24.14;30.81;98835.48;245657;1190;72977;-62
2023/11/25 14:24:37;;;;;;;;;15.50;14.50;;;;;24.13;30.94;98845.22;245713;1190;73860;-61
2023/11/25 14:29:43;;;;;;;;;18.50;17.25;;;;;24.13;30.93;98840.79;245692;1177;72553;-62
2023/11/25 14:34:46;;;;;;;;;18.25;17.25;;;;;24.13;30.85;98840.84;245698;1184;73327;-63
2023/11/25 14:39:50;;;;;;;;;16.50;14.50;;;;;24.11;30.68;98832.71;245747;1177;74192;-60
2023/11/25 14:45:03;;;;;;;;;14.75;14.75;;;;;24.11;30.95;98829.54;245710;1183;73429;-62
2023/11/25 14:50:11;;;;;;;;;19.00;15.25;;;;;24.12;30.96;98830.14;245626;1177;72985;-60
2023/11/25 14:55:14;;;;;;;;;16.75;16.75;;;;;24.10;30.84;98816.45;245640;1182;73535;-61
2023/11/25 15:00:18;;;;;;;;;16.75;16.25;;;;;24.09;30.74;98810.65;245664;1177;58052;-60
2023/11/25 15:05:21;;;;;;;;;11.50;11.50;;;;;24.08;30.65;98815.17;245658;1183;73457;-60
2023/11/25 15:10:25;;;;;;;;;14.00;14.00;;;;;24.07;30.66;98810.38;245712;1182;73919;-62
2023/11/25 15:15:31;;;;;;;;;14.50;14.50;;;;;24.06;30.72;98814.15;245669;1177;73548;-61
2023/11/25 15:20:36;;;;;;;;;11.50;11.50;;;;;24.06;30.53;98822.89;245698;1183;72577;-61
2023/11/25 15:25:42;;;;;;;;;15.25;14.50;;;;;24.06;30.51;98833.38;245683;1183;73057;-60
2023/11/25 15:30:46;;;;;;;;;15.25;15.25;;;;;24.05;30.51;98845.63;245620;1177;74442;-61
2023/11/25 15:35:49;;;;;;;;;12.75;12.75;;;;;24.03;30.34;98852.81;245668;1177;73565;-61
2023/11/25 15:40:52;;;;;;;;;13.25;13.00;;;;;24.02;30.26;98857.02;245614;1183;74157;-62
2023/11/25 15:45:56;;;;;;;;;12.25;12.25;;;;;24.00;30.17;98860.42;245642;1178;57752;-60
2023/11/25 15:50:59;;;;;;;;;11.50;11.50;;;;;23.96;30.09;98843.89;245620;1177;73310;-62
2023/11/25 15:56:03;;;;;;;;;13.75;13.00;;;;;23.94;30.00;98821.44;245679;1177;73437;-62
2023/11/25 16:01:06;;;;;;;;;14.50;13.50;;;;;23.95;30.20;98814.61;245655;1183;73096;-60
2023/11/25 16:06:11;;;;;;;;;11.75;11.75;;;;;23.94;29.95;98817.23;245640;1177;74520;-63
2023/11/25 16:11:14;;;;;;;;;14.50;12.00;;;;;23.93;29.87;98809.05;245630;1177;74107;-62
2023/11/25 16:16:18;;;;;;;;;12.25;12.25;;;;;23.92;29.94;98808.11;245660;1183;57845;-61
2023/11/25 16:21:21;;;;;;;;;11.50;11.50;;;;;23.92;29.82;98814.61;245669;1182;73303;-61
2023/11/25 16:26:24;;;;;;;;;12.00;12.00;;;;;23.92;30.02;98809.09;245644;1177;74110;-60
2023/11/25 16:31:28;;;;;;;;;16.00;15.00;;;;;23.92;29.97;98814.02;245638;1184;57514;-61
2023/11/25 16:36:31;;;;;;;;;14.75;14.50;;;;;23.90;29.65;98823.58;245645;1177;57544;-60
2023/11/25 16:41:37;;;;;;;;;15.00;15.00;;;;;23.90;29.76;98827.02;245640;1182;74039;-62
2023/11/25 16:46:40;;;;;;;;;13.00;12.75;;;;;23.90;29.63;98817.36;245661;1184;72921;-61
2023/11/25 16:51:43;;;;;;;;;13.25;13.00;;;;;23.90;29.69;98831.50;245655;1183;73660;-61
2023/11/25 16:56:47;;;;;;;;;13.00;13.00;;;;;23.90;29.84;98837.99;245650;1182;71950;-62
2023/11/25 17:01:53;;;;;;;;;13.50;12.00;;;;;23.89;29.57;98850.71;245644;1182;72500;-62
2023/11/25 17:06:56;;;;;;;;;13.33;13.33;;;;;23.89;29.56;98849.84;245653;1177;74002;-62
2023/11/25 17:11:59;;;;;;;;;10.50;10.50;;;;;23.89;29.59;98844.59;245650;1182;72561;-61
2023/11/25 17:17:08;;;;;;;;;11.50;11.50;;;;;23.89;29.67;98836.52;245669;1180;57503;-62
2023/11/25 17:22:12;;;;;;;;;13.50;13.50;;;;;23.89;29.53;98847.17;245644;1182;73310;-60
2023/11/25 17:27:16;;;;;;;;;15.00;13.50;;;;;23.88;29.41;98845.67;245675;1183;73244;-62
2023/11/25 17:32:19;;;;;;;;;12.00;12.00;;;;;23.86;29.64;98835.59;245664;1182;73477;-63
2023/11/25 17:37:23;;;;;;;;;10.50;10.50;;;;;23.86;29.46;98812.27;245637;1177;72921;-62
2023/11/25 17:42:26;;;;;;;;;12.50;12.50;;;;;23.86;29.39;98792.34;245608;1177;73416;-59
2023/11/25 17:47:29;;;;;;;;;12.75;12.75;;;;;23.85;29.47;98790.67;245635;1181;57488;-63
2023/11/25 17:52:33;;;;;;;;;12.50;10.75;;;;;23.84;29.48;98778.05;245603;1177;57640;-62
2023/11/25 17:57:36;;;;;;;;;12.25;10.25;;;;;23.82;29.33;98768.11;245630;1184;73003;-62
2023/11/25 18:02:41;;;;;;;;;10.75;10.75;;;;;23.81;29.32;98784.98;245659;1177;73370;-62
2023/11/25 18:07:44;;;;;;;;;12.33;11.33;;;;;23.82;29.42;98802.34;245668;1183;72733;-62
2023/11/25 18:12:47;;;;;;;;;13.00;13.00;;;;;23.82;29.34;98779.02;245679;1177;74881;-61
2023/11/25 18:17:51;;;;;;;;;13.00;13.00;;;;;23.81;29.22;98758.89;245625;1182;73318;-61
2023/11/25 18:22:54;;;;;;;;;10.67;10.67;;;;;23.78;29.37;98727.88;245714;1181;73261;-62
2023/11/25 18:27:57;;;;;;;;;9.00;9.00;;;;;23.78;29.20;98715.06;245700;1182;73535;-59
2023/11/25 18:33:00;;;;;;;;;11.50;11.50;;;;;23.78;29.24;98713.42;245675;1183;57424;-61
2023/11/25 18:38:04;;;;;;;;;10.33;10.33;;;;;23.77;29.04;98692.30;245690;1182;72795;-62
2023/11/25 18:43:07;;;;;;;;;13.00;13.00;;;;;23.76;29.16;98669.65;245684;1181;73875;-60
2023/11/25 18:48:13;;;;;;;;;10.67;10.33;;;;;23.76;29.13;98701.20;245734;1183;73672;-61
2023/11/25 18:53:16;;;;;;;;;11.50;11.50;;;;;23.76;29.17;98696.94;245665;1177;74130;-62
2023/11/25 18:58:19;;;;;;;;;10.00;10.00;;;;;23.76;29.12;98704.04;245700;1177;57610;-62
2023/11/25 19:03:24;;;;;;;;;13.50;12.50;;;;;23.76;29.08;98717.48;245726;1177;57554;-62
2023/11/25 19:08:28;;;;;;;;;11.33;11.00;;;;;23.76;28.99;98706.55;245688;1177;73225;-62
2023/11/25 19:13:31;;;;;;;;;10.00;10.00;;;;;23.74;29.04;98695.52;245725;1182;57558;-60
2023/11/25 19:18:34;;;;;;;;;10.25;10.25;;;;;23.74;29.05;98684.44;245669;1177;73844;-61
2023/11/25 19:23:41;;;;;;;;;11.33;10.33;;;;;23.75;28.98;98707.27;245707;1187;73413;-60
2023/11/25 19:28:44;;;;;;;;;11.00;11.00;;;;;23.75;28.99;98727.25;245683;1182;57460;-61
2023/11/25 19:33:47;;;;;;;;;9.67;9.00;;;;;23.75;29.01;98739.74;245688;1183;57484;-61
2023/11/25 19:38:50;;;;;;;;;9.75;9.50;;;;;23.75;29.02;98742.09;245688;1190;73094;-62
2023/11/25 19:43:56;;;;;;;;;11.00;11.00;;;;;23.75;29.04;98736.48;245690;1177;72916;-62
2023/11/25 19:48:59;;;;;;;;;13.00;10.33;;;;;23.75;28.91;98731.45;245665;1182;57450;-60
2023/11/25 19:54:08;;;;;;;;;12.33;10.67;;;;;23.74;28.97;98722.94;245674;1177;57511;-61
2023/11/25 19:59:12;;;;;;;;;10.50;10.50;;;;;23.75;29.09;98709.45;245660;1177;73436;-61
2023/11/25 20:04:18;;;;;;;;;11.00;10.00;;;;;23.74;28.99;98697.92;245611;1183;57535;-61
2023/11/25 20:09:21;;;;;;;;;9.75;9.75;;;;;23.73;28.96;98674.08;245653;1190;73011;-61
2023/11/25 20:14:25;;;;;;;;;10.00;10.00;;;;;23.73;28.97;98667.14;245648;1182;73985;-61
2023/11/25 20:19:29;;;;;;;;;14.33;12.00;;;;;23.74;28.96;98673.09;245685;1182;72565;-61
2023/11/25 20:24:33;;;;;;;;;12.67;12.67;;;;;23.73;28.97;98659.60;245643;1183;72646;-62
2023/11/25 20:29:36;;;;;;;;;9.25;9.25;;;;;23.71;28.86;98652.52;245618;1183;74641;-62
2023/11/25 20:34:39;;;;;;;;;10.25;10.25;;;;;23.71;28.90;98652.85;245651;1183;57525;-62
2023/11/25 20:39:42;;;;;;;;;9.00;9.00;;;;;23.71;28.94;98654.39;245642;1190;73554;-63
2023/11/25 20:44:45;;;;;;;;;10.25;10.25;;;;;23.69;28.85;98658.27;245594;1177;57535;-61
2023/11/25 20:49:50;;;;;;;;;11.67;11.67;;;;;23.70;28.95;98661.98;245609;1183;73243;-62
2023/11/25 20:54:53;;;;;;;;;13.00;12.67;;;;;23.70;28.83;98660.17;245644;1190;73856;-62
2023/11/25 20:59:56;;;;;;;;;9.00;9.00;;;;;23.69;28.73;98662.08;245659;1182;57568;-61
2023/11/25 21:04:59;;;;;;;;;9.00;9.00;;;;;23.67;28.71;98672.08;245622;1177;57459;-61
2023/11/25 21:10:07;;;;;;;;;11.33;11.00;;;;;23.65;28.82;98685.41;245638;1184;57829;-62
2023/11/25 21:15:12;;;;;;;;;9.67;9.33;;;;;23.66;28.79;98699.21;245631;1182;73563;-61
2023/11/25 21:20:15;;;;;;;;;9.50;9.50;;;;;23.65;28.74;98706.96;245639;1181;72037;-62
2023/11/25 21:25:21;;;;;;;;;9.75;9.75;;;;;23.63;28.50;98719.98;245632;1190;74417;-61
2023/11/25 21:30:25;;;;;;;;;11.25;9.75;;;;;23.60;28.61;98732.00;245634;1177;73509;-62
2023/11/25 21:35:28;;;;;;;;;10.00;10.00;;;;;23.59;28.60;98745.46;245571;1183;73281;-61
2023/11/25 21:40:32;;;;;;;;;12.25;10.00;;;;;23.60;28.45;98757.70;245590;1179;73620;-60
2023/11/25 21:45:36;;;;;;;;;11.33;11.33;;;;;23.61;28.42;98772.12;245629;1182;73919;-63
2023/11/25 21:50:40;;;;;;;;;11.33;10.33;;;;;23.58;28.39;98772.38;245580;1182;72603;-62
2023/11/25 21:55:43;;;;;;;;;10.67;10.67;;;;;23.55;28.43;98769.05;245586;1182;72660;-60
2023/11/25 22:00:46;;;;;;;;;10.33;10.33;;;;;23.54;28.21;98783.67;245618;1182;72825;-62
2023/11/25 22:05:49;;;;;;;;;10.33;9.67;;;;;23.52;28.41;98786.73;245571;1177;72934;-62
2023/11/25 22:10:53;;;;;;;;;12.67;11.00;;;;;23.51;28.13;98763.67;245573;1183;57484;-61
2023/11/25 22:15:56;;;;;;;;;10.75;10.75;;;;;23.48;28.14;98756.95;245569;1183;73358;-62
2023/11/25 22:20:59;;;;;;;;;9.67;9.00;;;;;23.47;28.09;98734.09;245562;1183;72724;-60
2023/11/25 22:26:15;;;;;;;;;10.67;10.67;;;;;23.45;28.07;98711.39;245600;1177;57523;-61
2023/11/25 22:31:19;;;;;;;;;9.00;9.00;;;;;23.44;28.03;98705.98;245617;1183;73406;-60
2023/11/25 22:36:23;;;;;;;;;10.75;10.50;;;;;23.41;27.83;98689.26;245726;1181;74118;-60
2023/11/25 22:41:26;;;;;;;;;11.67;11.67;;;;;23.38;27.79;98685.10;245703;1183;71780;-62
2023/11/25 22:46:29;;;;;;;;;10.33;10.33;;;;;23.40;27.81;98689.90;245723;1178;57448;-62
2023/11/25 22:51:32;;;;;;;;;12.00;12.00;;;;;23.40;27.71;98673.70;245684;1183;73865;-62
2023/11/25 22:56:35;;;;;;;;;13.00;13.00;;;;;23.39;27.63;98657.77;245748;1182;57721;-61
2023/11/25 23:01:38;;;;;;;;;11.50;9.50;;;;;23.39;27.71;98650.63;245712;1177;57598;-61
2023/11/25 23:06:43;;;;;;;;;9.00;9.00;;;;;23.39;27.55;98651.05;245719;1183;57577;-60